Aviation Digital Data Service (ADDS)

Output produced by METARs form (1136 UTC 21 April 2018)
found at http://aviationweather.gov/adds/metars/
 
KHLG 211120Z 2112/2212 VRB03KT P6SM SCT250 
     FM211700 36005KT P6SM BKN150